MDT,Max TemperatureF,Mean TemperatureF,Min TemperatureF,Max Dew PointF,MeanDew PointF,Min DewpointF,Max Humidity, Mean Humidity, Min Humidity, Max Sea Level PressureIn, Mean Sea Level PressureIn, Min Sea Level PressureIn, Max VisibilityMiles, Mean VisibilityMiles, Min VisibilityMiles, Max Wind SpeedMPH, Mean Wind SpeedMPH, Max Gust SpeedMPH,PrecipitationIn, CloudCover, Events, WindDirDegrees
2012-5-1,66,55,42,46,37,28,87,55,28,29.68,29.58,29.53,10,10,10,18,10,26,0.01,2,,277
2012-5-2,62,48,35,34,29,27,75,46,27,29.86,29.74,29.68,10,10,10,13,9,18,0.00,2,,288
2012-5-3,66,52,37,45,36,34,87,57,32,29.98,29.90,29.83,10,10,10,18,6,23,0.00,2,,110
2012-5-4,71,60,48,52,47,43,94,68,38,29.94,29.86,29.79,10,10,3,16,8,23,0.48,4,Thunderstorm,358
2012-5-5,68,55,42,54,44,36,93,73,46,30.07,29.94,29.87,10,10,9,32,11,37,0.00,4,,325
2012-5-6,53,45,37,39,34,30,81,63,47,30.17,30.07,30.02,10,10,8,43,19,54,0.00,4,,258
2012-5-7,59,48,37,32,28,25,75,46,29,30.19,30.17,30.14,10,10,10,32,16,41,0.00,4,,305
2012-5-8,62,50,37,36,31,27,81,48,26,30.24,30.15,30.02,10,10,10,13,8,,0.00,1,,65
2012-5-9,78,60,42,43,36,28,71,42,20,30.03,29.82,29.66,10,10,10,16,8,22,0.00,0,,180
2012-5-10,66,52,37,41,36,28,71,53,34,30.10,29.84,29.63,10,10,10,32,12,41,0.00,2,,315
2012-5-11,60,45,30,30,22,16,87,43,19,30.27,30.21,30.11,10,10,10,17,10,28,0.00,0,,269
2012-5-12,73,54,35,34,24,18,61,35,14,30.30,30.24,30.18,10,10,8,17,8,23,0.00,0,,216
2012-5-13,80,60,39,34,28,25,61,33,13,30.19,30.12,30.05,10,10,10,18,9,28,0.00,0,,249
2012-5-14,84,62,41,41,30,18,61,31,13,30.14,30.05,30.00,10,10,10,28,8,33,0.00,0,,294
2012-5-15,78,60,41,32,26,18,53,27,17,30.24,30.13,29.99,10,10,6,16,7,21,0.00,0,,129
2012-5-16,87,71,55,45,35,28,44,28,17,29.99,29.77,29.65,10,10,8,15,10,17,0.00,0,,174
2012-5-17,80,66,53,43,39,34,54,35,24,29.72,29.68,29.63,10,10,10,25,10,32,0.00,0,,345
2012-5-18,69,61,53,54,48,43,88,66,43,29.89,29.73,29.66,10,10,5,20,11,26,0.13,5,,13
2012-5-19,64,53,42,43,35,28,87,55,26,30.13,30.05,29.88,10,10,10,18,12,24,0.01,2,,329
2012-5-20,73,55,37,37,33,30,81,43,20,30.20,30.13,30.05,10,10,10,13,4,17,0.00,1,,180
2012-5-21,84,68,53,46,40,37,58,38,20,30.04,29.93,29.79,10,10,10,18,8,24,0.00,2,,227
2012-5-22,75,64,53,55,47,41,88,53,33,29.76,29.57,29.48,10,10,10,26,11,34,0.01,3,Thunderstorm,321
2012-5-23,66,55,44,45,36,32,76,46,30,29.61,29.56,29.54,10,10,10,24,14,32,0.00,2,,283
2012-5-24,55,47,39,39,35,30,76,59,41,29.89,29.70,29.60,10,10,10,22,11,28,0.00,5,,310
2012-5-25,48,40,32,37,30,27,87,65,46,30.11,30.03,29.90,10,10,5,21,12,30,0.00,5,,19
2012-5-26,44,42,39,41,39,37,93,90,87,30.11,29.99,29.80,10,4,1,23,13,29,0.00,8,,65
2012-5-27,55,48,39,45,39,34,93,74,51,29.82,29.70,29.65,10,9,2,23,13,29,0.00,7,,285
2012-5-28,50,44,37,39,36,32,87,73,62,29.96,29.79,29.72,10,10,8,31,20,41,0.00,7,,276
2012-5-29,55,47,39,39,36,34,87,65,44,30.12,30.05,29.96,10,10,10,18,11,23,0.00,5,,21
2012-5-30,57,50,42,50,44,36,94,79,62,30.07,30.00,29.96,10,9,5,15,8,23,0.02,7,,114
2012-5-31,69,58,46,48,46,45,100,72,43,30.11,30.01,29.88,10,10,1,12,3,,0.00,6,,187